Terminal Aerodrome Forecast
Issued by NWS Northern Indiana

Home | Current Version | Previous Version | Graphics & Text | Print | Product List | Glossary On
Versions: 1 2 3 4 5 6 7 8 9 10 11 12 13 14 15 16 17 18 19 20 21 22
490
FTUS43 KIWX 091708 AAC
TAFFWA
TAF AMD
KFWA 091708Z 0917/1012 22008KT 3SM -SN OVC020
      TEMPO 0917/0918 21011KT 1SM -SN BKN015
     FM092100 28010G18KT P6SM VCSH OVC020
     FM100900 27009KT P6SM BKN045=

USA.gov is the U.S. government's official web portal to all federal, state and local government web resources and services.